Portada
METAR-TAF:

METAR-TAF

Aeroports :

Visakhapatnam, Índia

latitud: 17-43-16N, longitud: 83-13-28E, altitud: 6 m

Observació

L'informe es va fer fa 42 minuts, a les 15:00 UTC
Vent 7 kt del Oest/Sud-Oest
Temperatura 31°C
Humitat 79%
Pressió 1008 hPa
Visibilitat: 5000 m
Escasses núvols a una alçada de 1600 ft
Núvols disperses a una alçada de 9000 ft
boirina

METAR: VOVZ 251500Z 24007KT 5000 BR FEW016 SCT090 31/27 Q1008 NOSIG

Hora: 21:12 (15:42 UTC)

Pronòstic

L'informe es va fer fa 7 hores i 42 minuts, a les 08:00 UTC
Pronòstic vàlid del 25 a les 09 UTC al 25 a les 18 UTC
Vent 12 kt del Sud-Oest
Visibilitat: 5000 m
Escasses núvols a una alçada de 1600 ft
Núvols disperses a una alçada de 9000 ft
calitja
Evolucionant progressivament
l' 25 a les 15 UTC al 25 a les 17 UTC
Vent 6 kt del Oest
Visibilitat: 4500 m
boirina

TAF: VOVZ 250800Z 2509/2518 23012KT 5000 HZ FEW016 SCT090 BECMG 2515/2517 28006KT 4500 BR

Observacions i pronòstics meteorològics de més de 4000 aeroports (METAR i TAF).

Les estacions disponibles són els punts grocs i vermells al mapa.

Posi el ratolí al punt desitjat per veure el nom de l'estació.

Feu clic per veure les observacions i els pronòstics meteorològics.

Per canviar el mapa: feu clic els botons verds amb una creu de color negre per apropar; al botó verd amb un guió per allunyar la imatge; o en les fletxes verdes per a mapes adjacents.


METAR-TAF: